Anatone, Washington
Current Conditions -  °F | °C
As of 4:56 AM on Wednesday 22 Oct 2014 (Local Time) from KLWS Reporting Station
Clear Clear  
Wind Chill:   Ceiling: Unl
Heat Index:   Visibility: 10mi
Dew Point:   Wind: 7mph
Humidity: 89%   Direction: 120°ESE
Pressure: 29.98"   Gusts: NA
Location:  46.13°N, 117.13°W
Report Text: KLWS 221156Z AUTO 12006KT 10SM CLR 07/05 A2998 RMK AO2 SLP153 T00670050 10083 20061 56006
Loading
Personal Weather Stations






























Interactive Weather Map
Tropical Storm Tracking
New forecast layout! Learn more

10-Day Weather Forecast

Advertisements
Track Severe Weather on mobile